Time;durP1;ratioP1;P1;durP2;ratioP2;P2;SDS_P1;SDS_P2;PMS_P1;PMS_P2;Temp;Humidity;BMP_temperature;BMP_pressure;BME280_temperature;BME280_humidity;BME280_pressure;Samples;Min_cycle;Max_cycle;Signal;HPM_P1;HPM_P2
2023/10/09 00:01:31;;;;;;;4.20;2.20;;;;;;;4.24;75.50;97519.55;108878;1273;37223;-78
2023/10/09 00:04:10;;;;;;;5.50;2.30;;;;;;;4.22;75.37;97522.18;108850;1270;26869;-78
2023/10/09 00:06:59;;;;;;;3.90;2.20;;;;;;;4.18;75.43;97516.39;108978;1267;25486;-79
2023/10/09 00:09:46;;;;;;;5.60;2.40;;;;;;;4.23;75.48;97522.79;108916;1273;44199;-77
2023/10/09 00:12:29;;;;;;;3.40;2.20;;;;;;;4.23;75.39;97518.23;108933;1267;22523;-78
2023/10/09 00:15:12;;;;;;;5.00;2.50;;;;;;;4.21;75.53;97521.41;108987;1273;23937;-78
2023/10/09 00:18:04;;;;;;;3.90;2.30;;;;;;;4.28;75.49;97519.23;108959;1267;22606;-78
2023/10/09 00:20:54;;;;;;;5.30;2.40;;;;;;;4.37;75.55;97514.83;108957;1271;47281;-78
2023/10/09 00:23:42;;;;;;;5.00;2.20;;;;;;;4.37;75.33;97515.76;108916;1266;22572;-78
2023/10/09 00:26:21;;;;;;;6.00;2.10;;;;;;;4.41;75.36;97506.50;108955;1266;25457;-78
2023/10/09 00:29:27;;;;;;;6.60;2.70;;;;;;;4.43;75.19;97502.23;108947;1267;24214;-78
2023/10/09 00:32:27;;;;;;;6.20;2.40;;;;;;;4.40;75.09;97498.07;108937;1273;22600;-78
2023/10/09 00:35:36;;;;;;;4.30;1.80;;;;;;;4.45;75.13;97501.54;109022;1270;25298;-78
2023/10/09 00:38:14;;;;;;;4.20;2.40;;;;;;;4.44;75.05;97510.19;108895;1273;24219;-78
2023/10/09 00:41:10;;;;;;;4.50;2.00;;;;;;;4.44;75.07;97509.73;108952;1267;60039;-78
2023/10/09 00:43:45;;;;;;;5.40;2.30;;;;;;;4.45;74.97;97511.14;108942;1273;22524;-78
2023/10/09 00:46:42;;;;;;;5.40;2.40;;;;;;;4.43;75.14;97504.87;108955;1267;22724;-78
2023/10/09 00:49:24;;;;;;;5.90;2.50;;;;;;;4.41;75.01;97496.52;108950;1273;22524;-78
2023/10/09 00:52:04;;;;;;;4.90;2.30;;;;;;;4.37;74.99;97491.77;108931;1266;22607;-78
2023/10/09 00:54:50;;;;;;;4.20;2.40;;;;;;;4.35;75.04;97482.61;109003;1259;22901;-78
2023/10/09 00:57:37;;;;;;;4.20;2.20;;;;;;;4.32;75.08;97489.14;108979;1272;22576;-78
2023/10/09 01:00:32;;;;;;;4.90;2.10;;;;;;;4.29;75.07;97488.48;108899;1273;61058;-78
2023/10/09 01:03:20;;;;;;;5.20;2.40;;;;;;;4.27;75.07;97484.15;108970;1266;25141;-78
2023/10/09 01:06:21;;;;;;;4.60;2.30;;;;;;;4.26;75.17;97477.48;108966;1270;22547;-78
2023/10/09 01:09:09;;;;;;;5.70;2.60;;;;;;;4.28;75.37;97476.27;108970;1272;22515;-78
2023/10/09 01:12:04;;;;;;;4.40;2.50;;;;;;;4.28;75.29;97467.34;108889;1273;81879;-78
2023/10/09 01:14:44;;;;;;;4.40;2.20;;;;;;;4.22;75.32;97450.08;108930;1272;22517;-79
2023/10/09 01:20:32;;;;;;;;;;;;;;;4.22;75.24;97436.55;108921;1270;48906;-78
2023/10/09 01:23:19;;;;;;;6.00;2.80;;;;;;;4.15;75.37;97434.79;108944;1267;22533;-78
2023/10/09 01:25:49;;;;;;;;;;;;;;;4.13;75.37;97426.91;108943;1273;25217;-78
2023/10/09 01:28:29;;;;;;;;;;;;;;;4.09;75.41;97427.52;108966;1273;24225;-78
2023/10/09 01:31:08;;;;;;;3.40;2.00;;;;;;;4.06;75.68;97420.73;108924;1267;36492;-78
2023/10/09 01:33:50;;;;;;;4.40;2.40;;;;;;;3.99;75.66;97409.08;108954;1270;22645;-78
2023/10/09 01:36:41;;;;;;;4.80;1.70;;;;;;;3.94;75.72;97403.19;108982;1270;22565;-78
2023/10/09 01:39:30;;;;;;;5.20;2.20;;;;;;;3.91;75.87;97403.86;108893;1270;44643;-78
2023/10/09 01:42:05;;;;;;;4.90;1.80;;;;;;;3.89;75.91;97403.30;108966;1267;25923;-78
2023/10/09 01:47:46;;;;;;;3.80;2.00;;;;;;;3.92;76.16;97381.41;108926;1266;22600;-78
2023/10/09 01:50:30;;;;;;;3.10;1.80;;;;;;;3.92;76.04;97389.77;108913;1271;46081;-78
2023/10/09 01:53:07;;;;;;;5.00;2.00;;;;;;;3.87;75.94;97395.23;108954;1273;23745;-78
2023/10/09 01:58:47;;;;;;;4.20;2.00;;;;;;;3.83;76.11;97399.34;108903;1268;22504;-78
2023/10/09 02:01:27;;;;;;;2.70;1.50;;;;;;;3.87;76.09;97395.02;108856;1272;42753;-79
2023/10/09 02:04:13;;;;;;;2.60;1.30;;;;;;;3.92;76.07;97393.67;108967;1272;22538;-78
2023/10/09 02:06:45;;;;;;;3.80;1.60;;;;;;;3.98;76.05;97398.12;109043;1272;22477;-78
2023/10/09 02:09:31;;;;;;;3.40;1.50;;;;;;;4.01;76.02;97386.05;108891;1267;24225;-78
2023/10/09 02:12:06;;;;;;;3.00;1.60;;;;;;;4.00;75.93;97374.71;108963;1264;22590;-78
2023/10/09 02:14:45;;;;;;;2.60;1.60;;;;;;;4.07;75.88;97392.60;108978;1267;23722;-79
2023/10/09 02:17:29;;;;;;;3.90;2.00;;;;;;;4.09;75.98;97393.33;108946;1267;22680;-78
2023/10/09 02:20:18;;;;;;;3.60;1.50;;;;;;;4.11;75.99;97402.26;108942;1270;36153;-78
2023/10/09 02:25:57;;;;;;;3.40;1.90;;;;;;;4.15;76.07;97397.25;108958;1267;22526;-78
2023/10/09 02:28:52;;;;;;;3.50;2.00;;;;;;;4.15;76.20;97395.27;108921;1273;24216;-79
2023/10/09 02:31:35;;;;;;;5.20;2.00;;;;;;;4.15;76.13;97390.98;108913;1272;60586;-78
2023/10/09 02:34:10;;;;;;;3.90;1.70;;;;;;;4.13;76.14;97386.45;108929;1270;23676;-79
2023/10/09 02:36:57;;;;;;;4.80;1.60;;;;;;;4.07;76.09;97377.50;108928;1250;25028;-78
2023/10/09 02:39:43;;;;;;;4.40;2.20;;;;;;;3.99;76.30;97371.38;108977;1271;24226;-78
2023/10/09 02:43:12;;;;;;;4.90;1.70;;;;;;;3.95;76.51;97372.72;108954;1273;23307;-78
2023/10/09 02:45:57;;;;;;;4.80;1.70;;;;;;;3.94;76.72;97369.65;108939;1269;24184;-78
2023/10/09 02:48:42;;;;;;;4.50;1.50;;;;;;;3.96;76.79;97361.29;108908;1273;25402;-78
2023/10/09 02:54:36;;;;;;;3.10;1.70;;;;;;;4.09;76.81;97348.08;108942;1273;25895;-78
2023/10/09 02:57:21;;;;;;;3.90;1.80;;;;;;;4.14;76.85;97347.89;109000;1272;23849;-78
2023/10/09 02:59:59;;;;;;;4.50;2.00;;;;;;;4.18;76.74;97338.19;109018;1266;54906;-78
2023/10/09 03:02:49;;;;;;;2.30;1.40;;;;;;;4.22;76.71;97337.10;108936;1272;23347;-78
2023/10/09 03:05:38;;;;;;;2.70;1.60;;;;;;;4.26;76.53;97339.53;109373;1264;22514;-78
2023/10/09 03:08:12;;;;;;;2.50;1.10;;;;;;;4.30;76.57;97344.67;109425;1262;22640;-78
2023/10/09 03:10:47;;;;;;;4.20;1.50;;;;;;;4.37;76.28;97343.91;109618;1267;40660;-78
2023/10/09 03:13:28;;;;;;;4.60;1.40;;;;;;;4.42;76.22;97351.43;109701;1267;22511;-78
2023/10/09 03:16:09;;;;;;;4.10;1.70;;;;;;;4.47;76.20;97354.02;109103;1268;24238;-78
2023/10/09 03:18:59;;;;;;;3.60;1.70;;;;;;;4.47;76.16;97350.83;109575;1267;23900;-78
2023/10/09 03:21:38;;;;;;;2.90;1.60;;;;;;;4.51;76.24;97341.85;109602;1266;45855;-78
2023/10/09 03:24:13;;;;;;;2.80;1.90;;;;;;;4.50;76.24;97332.92;109648;1260;23147;-78
2023/10/09 03:27:07;;;;;;;2.20;1.40;;;;;;;4.51;76.33;97320.61;109692;1259;22473;-78
2023/10/09 03:29:48;;;;;;;3.00;1.70;;;;;;;4.51;75.97;97320.69;109585;1262;46311;-80
2023/10/09 03:32:36;;;;;;;;;;;;;;;;;;;;;
2023/10/09 03:35:28;;;;;;;2.20;1.50;;;;;;;4.44;75.90;97334.57;109605;1267;22536;-79
2023/10/09 03:38:12;;;;;;;3.90;1.50;;;;;;;4.44;76.06;97336.71;109635;1260;22538;-78
2023/10/09 03:41:01;;;;;;;3.40;1.60;;;;;;;4.44;75.99;97329.69;109640;1256;38590;-78
2023/10/09 03:43:40;;;;;;;2.90;1.40;;;;;;;4.42;75.90;97330.36;109378;1269;22567;-79
2023/10/09 03:46:36;;;;;;;4.50;1.50;;;;;;;4.38;75.85;97328.36;109614;1259;22809;-79
2023/10/09 03:49:25;;;;;;;7.00;2.30;;;;;;;4.29;75.81;97343.39;109340;1262;22628;-78
2023/10/09 03:52:17;;;;;;;3.90;1.50;;;;;;;4.16;76.01;97340.21;109482;1259;165354;-79
2023/10/09 03:54:54;;;;;;;3.10;1.60;;;;;;;4.23;75.84;97331.58;109652;1267;24212;-78
2023/10/09 03:57:35;;;;;;;2.60;1.40;;;;;;;4.24;75.90;97324.09;109447;1264;22518;-78
2023/10/09 04:00:44;;;;;;;4.10;1.70;;;;;;;4.23;75.95;97333.79;109611;1264;41553;-79
2023/10/09 04:03:15;;;;;;;;;;;;;;;4.22;75.98;97319.66;109647;1259;22514;-78
2023/10/09 04:06:00;;;;;;;2.40;1.40;;;;;;;4.16;75.97;97293.53;109371;1268;26715;-78
2023/10/09 04:08:41;;;;;;;2.80;1.40;;;;;;;4.15;75.84;97291.99;109684;1259;22498;-78
2023/10/09 04:11:26;;;;;;;3.90;1.50;;;;;;;4.07;75.93;97301.79;109571;1267;76175;-79
2023/10/09 04:14:21;;;;;;;3.40;1.50;;;;;;;4.07;76.05;97313.16;109618;1256;25296;-78
2023/10/09 04:20:47;;;;;;;5.00;1.70;;;;;;;4.00;76.41;97282.73;107060;1268;3424553;-79
2023/10/09 04:23:06;;;;;;;4.30;1.20;;;;;;;3.98;76.49;97272.42;109589;1267;22715;-78
2023/10/09 04:25:50;;;;;;;2.80;1.60;;;;;;;3.97;76.57;97266.15;109723;1244;22634;-79
2023/10/09 04:28:38;;;;;;;2.90;1.60;;;;;;;3.96;76.56;97257.89;109647;1260;22595;-78
2023/10/09 04:31:14;;;;;;;3.40;1.70;;;;;;;3.98;76.69;97251.16;109636;1268;42690;-79
2023/10/09 04:34:12;;;;;;;4.90;1.50;;;;;;;3.98;76.81;97251.85;109645;1264;22586;-79
2023/10/09 04:37:24;;;;;;;3.30;1.60;;;;;;;3.99;76.76;97248.77;109652;1267;22517;-79
2023/10/09 04:40:11;;;;;;;3.40;1.70;;;;;;;4.00;76.95;97249.76;109620;1260;64245;-79
2023/10/09 04:43:20;;;;;;;2.40;1.30;;;;;;;4.01;76.88;97248.20;109474;1261;23762;-79
2023/10/09 04:49:13;;;;;;;5.00;2.00;;;;;;;4.03;76.98;97258.33;109683;1259;22502;-79
2023/10/09 04:52:04;;;;;;;2.90;1.50;;;;;;;4.05;77.11;97253.45;109687;1267;46702;-79
2023/10/09 04:55:04;;;;;;;3.30;1.80;;;;;;;4.07;77.05;97241.75;109648;1259;22534;-79
2023/10/09 04:57:38;;;;;;;4.60;1.80;;;;;;;4.09;77.15;97239.95;109653;1267;22520;-79
2023/10/09 05:00:46;;;;;;;2.30;1.60;;;;;;;4.11;77.10;97239.52;109653;1262;65187;-79
2023/10/09 05:03:42;;;;;;;4.80;1.90;;;;;;;4.12;77.14;97231.45;109709;1264;22571;-78
2023/10/09 05:06:32;;;;;;;3.00;1.80;;;;;;;4.11;77.29;97221.94;109622;1260;25271;-79
2023/10/09 05:09:13;;;;;;;3.50;1.90;;;;;;;4.10;77.27;97214.09;109627;1266;22520;-79
2023/10/09 05:18:09;;;;;;;3.20;1.50;;;;;;;4.10;77.44;97219.09;109612;1264;25242;-79
2023/10/09 05:21:05;;;;;;;3.00;1.70;;;;;;;4.12;77.42;97208.01;109651;1262;71373;-79
2023/10/09 05:24:09;;;;;;;2.70;1.80;;;;;;;4.15;77.63;97209.01;109588;1260;22597;-79
2023/10/09 05:26:52;;;;;;;3.40;1.70;;;;;;;4.19;77.60;97205.55;109431;1268;22514;-78
2023/10/09 05:29:48;;;;;;;3.40;1.60;;;;;;;4.24;77.53;97204.02;109418;1268;22536;-79
2023/10/09 05:32:35;;;;;;;4.40;1.60;;;;;;;4.31;77.55;97212.67;109412;1262;60741;-79
2023/10/09 05:35:29;;;;;;;3.10;1.60;;;;;;;4.33;77.54;97205.08;109624;1267;23837;-79
2023/10/09 05:38:14;;;;;;;2.90;1.40;;;;;;;4.43;77.44;97206.48;109673;1247;22553;-79
2023/10/09 05:47:03;;;;;;;5.00;1.60;;;;;;;4.56;76.98;97200.61;109465;1267;24003;-79
2023/10/09 05:53:00;;;;;;;4.10;1.50;;;;;;;4.58;76.75;97193.25;109685;1267;23217;-78
2023/10/09 06:04:54;;;;;;;1.90;1.30;;;;;;;4.73;76.52;97176.23;108901;1270;22531;-79
2023/10/09 06:08:04;;;;;;;3.50;1.60;;;;;;;4.77;76.25;97174.11;108902;1273;24225;-79
2023/10/09 06:10:44;;;;;;;4.10;1.40;;;;;;;4.82;75.99;97169.56;108893;1273;44021;-78
2023/10/09 06:13:45;;;;;;;3.20;1.40;;;;;;;4.87;76.08;97152.17;109240;1268;22575;-78
2023/10/09 06:16:41;;;;;;;4.10;1.40;;;;;;;4.92;75.70;97140.61;109517;1259;22584;-78
2023/10/09 06:25:19;;;;;;;3.60;1.30;;;;;;;5.01;75.37;97124.00;109387;1267;22507;-78
2023/10/09 06:28:07;;;;;;;2.90;1.70;;;;;;;5.02;75.06;97127.05;109704;1261;22564;-79
2023/10/09 06:30:49;;;;;;;3.50;1.50;;;;;;;5.06;74.99;97122.70;109646;1259;54606;-79
2023/10/09 06:34:07;;;;;;;3.30;1.90;;;;;;;5.10;75.10;97120.28;109724;1268;22620;-79
2023/10/09 06:36:31;;;;;;;4.10;1.70;;;;;;;5.17;74.85;97125.14;109713;1267;23326;-78
2023/10/09 06:45:19;;;;;;;3.60;1.50;;;;;;;5.25;74.52;97131.73;109742;1267;22621;-78
2023/10/09 06:48:09;;;;;;;3.60;1.70;;;;;;;5.30;74.37;97136.83;109414;1264;24144;-78
2023/10/09 06:51:15;;;;;;;3.60;1.70;;;;;;;5.31;74.39;97144.58;109643;1267;29867;-78
2023/10/09 06:54:19;;;;;;;2.30;1.60;;;;;;;5.32;74.34;97141.38;109473;1268;25270;-79
2023/10/09 07:06:23;;;;;;;3.80;1.80;;;;;;;5.36;74.75;97163.89;109721;1266;22620;-78
2023/10/09 07:12:26;;;;;;;2.00;1.40;;;;;;;5.37;74.93;97154.31;105106;1311;544995;-79
2023/10/09 07:17:55;;;;;;;5.00;2.10;;;;;;;5.27;75.42;97154.02;108127;1284;25446;-78
2023/10/09 07:20:58;;;;;;;4.00;1.90;;;;;;;5.20;75.47;97159.44;106354;1284;2384055;-79
2023/10/09 07:24:13;;;;;;;3.40;1.70;;;;;;;5.15;75.90;97161.64;108173;1284;22531;-79
2023/10/09 07:27:06;;;;;;;4.60;1.70;;;;;;;5.10;76.22;97159.74;108340;1271;174870;-79
2023/10/09 07:29:55;;;;;;;2.70;1.20;;;;;;;5.09;76.72;97166.81;108895;1273;22528;-79
2023/10/09 07:32:41;;;;;;;6.50;1.50;;;;;;;4.98;77.02;97164.25;108936;1273;45152;-78
2023/10/09 07:35:46;;;;;;;1.60;1.10;;;;;;;5.04;77.24;97184.82;109262;1271;22508;-79
2023/10/09 07:38:44;;;;;;;2.60;1.40;;;;;;;5.01;77.69;97177.67;109223;1271;22690;-79
2023/10/09 07:41:39;;;;;;;2.70;1.40;;;;;;;4.98;78.03;97182.02;109160;1264;48816;-79
2023/10/09 07:44:40;;;;;;;5.30;1.50;;;;;;;4.93;78.72;97173.73;109223;1266;23721;-79
2023/10/09 07:48:00;;;;;;;3.60;1.50;;;;;;;4.86;79.21;97177.34;109209;1254;22705;-78
2023/10/09 07:53:28;;;;;;;5.30;2.50;;;;;;;4.75;80.36;97189.63;109150;1271;22523;-79
2023/10/09 07:56:08;;;;;;;4.20;1.80;;;;;;;4.73;80.72;97184.21;109162;1269;24235;-78
2023/10/09 07:59:00;;;;;;;4.20;2.10;;;;;;;4.73;80.92;97182.17;109132;1266;23752;-78
2023/10/09 08:01:39;;;;;;;5.00;2.50;;;;;;;4.73;81.19;97189.63;108990;1271;54784;-78
2023/10/09 08:04:37;;;;;;;5.50;2.70;;;;;;;4.71;81.49;97190.58;109018;1272;24178;-78
2023/10/09 08:07:26;;;;;;;4.80;2.80;;;;;;;4.66;81.60;97176.33;109039;1268;22634;-79
2023/10/09 08:13:49;;;;;;;6.60;2.70;;;;;;;4.64;82.26;97176.21;109035;1272;22535;-78
2023/10/09 08:16:04;;;;;;;6.60;3.00;;;;;;;4.63;82.48;97170.37;109022;1272;23024;-79
2023/10/09 08:18:52;;;;;;;6.10;2.70;;;;;;;4.63;82.73;97161.45;109055;1265;22528;-78
2023/10/09 08:21:43;;;;;;;4.10;2.60;;;;;;;4.62;82.99;97162.08;109020;1268;37275;-79
2023/10/09 08:24:52;;;;;;;4.60;2.80;;;;;;;4.59;83.08;97170.70;109034;1272;22589;-79
2023/10/09 08:31:02;;;;;;;5.30;2.50;;;;;;;4.58;83.46;97168.62;109012;1250;22586;-79
2023/10/09 08:33:44;;;;;;;3.70;1.90;;;;;;;4.56;83.66;97162.49;108893;1272;25523;-78
2023/10/09 08:36:22;;;;;;;4.30;2.40;;;;;;;4.55;83.86;97160.95;109004;1272;25415;-78
2023/10/09 08:39:16;;;;;;;5.40;2.30;;;;;;;4.53;83.77;97157.42;109048;1265;24422;-78
2023/10/09 08:42:08;;;;;;;5.30;2.60;;;;;;;4.48;83.71;97152.20;109063;1272;55212;-78
2023/10/09 08:44:49;;;;;;;5.10;2.40;;;;;;;4.46;84.16;97146.81;109067;1272;22487;-78
2023/10/09 08:47:25;;;;;;;;;;;;;;;4.43;84.29;97139.75;109041;1272;22491;-78
2023/10/09 08:50:10;;;;;;;3.70;2.30;;;;;;;4.39;83.98;97134.30;109008;1272;22525;-78
2023/10/09 08:53:05;;;;;;;4.10;1.70;;;;;;;4.35;84.20;97127.75;108902;1272;62117;-78
2023/10/09 08:55:44;;;;;;;3.80;1.90;;;;;;;4.35;84.10;97121.10;109020;1272;22545;-78
2023/10/09 08:58:32;;;;;;;3.40;1.70;;;;;;;4.35;84.23;97111.40;109041;1272;22514;-78
2023/10/09 09:01:08;;;;;;;3.30;1.60;;;;;;;4.35;84.50;97100.39;108951;1265;61404;-78
2023/10/09 09:04:03;;;;;;;2.90;1.50;;;;;;;4.39;84.44;97092.73;109004;1268;22519;-78
2023/10/09 09:07:01;;;;;;;3.10;1.70;;;;;;;4.44;84.48;97083.49;108981;1265;22556;-78
2023/10/09 09:10:17;;;;;;;2.20;1.60;;;;;;;4.44;84.66;97075.41;109057;1269;26783;-78
2023/10/09 09:13:00;;;;;;;2.70;2.00;;;;;;;4.36;84.73;97050.30;109189;1271;24310;-79
2023/10/09 09:15:44;;;;;;;2.80;1.80;;;;;;;4.44;85.12;97051.83;109127;1264;22524;-78
2023/10/09 09:18:36;;;;;;;2.60;1.30;;;;;;;4.51;85.54;97045.66;109132;1271;22533;-79
2023/10/09 09:21:27;;;;;;;3.40;1.70;;;;;;;4.53;85.61;97030.71;107617;1272;2023270;-79
2023/10/09 09:24:26;;;;;;;3.00;1.60;;;;;;;4.61;85.84;97028.05;109078;1264;22632;-79
2023/10/09 09:27:31;;;;;;;3.50;1.90;;;;;;;4.66;86.14;97033.39;109149;1264;23790;-79
2023/10/09 09:30:37;;;;;;;3.10;1.70;;;;;;;4.64;85.88;97034.21;109180;1271;22522;-79
2023/10/09 09:33:39;;;;;;;3.10;1.60;;;;;;;4.62;86.10;97032.95;109111;1271;23917;-79
2023/10/09 09:36:28;;;;;;;3.40;1.60;;;;;;;4.60;86.37;97023.95;109071;1265;22605;-79
2023/10/09 09:39:19;;;;;;;4.00;1.50;;;;;;;4.60;86.47;97015.02;109107;1265;24040;-79
2023/10/09 09:41:56;;;;;;;1.90;1.40;;;;;;;4.67;86.50;97030.63;109046;1266;45254;-79
2023/10/09 09:44:45;;;;;;;2.20;1.30;;;;;;;4.65;86.50;97027.60;108988;1266;23457;-78
2023/10/09 09:47:35;;;;;;;2.40;1.10;;;;;;;4.67;86.46;97018.75;109022;1265;22522;-79
2023/10/09 09:50:24;;;;;;;2.20;1.20;;;;;;;4.67;86.57;97006.93;108984;1268;22516;-78
2023/10/09 09:52:58;;;;;;;1.80;1.00;;;;;;;4.72;86.60;96996.78;107408;1269;2082413;-79
2023/10/09 09:56:00;;;;;;;2.50;1.10;;;;;;;4.76;86.71;96996.70;108985;1272;23673;-79
2023/10/09 09:58:46;;;;;;;2.10;1.20;;;;;;;4.81;86.94;96992.08;108997;1272;22494;-79
2023/10/09 10:01:24;;;;;;;2.40;1.10;;;;;;;4.81;86.97;96982.79;108917;1265;47857;-78
2023/10/09 10:04:08;;;;;;;2.30;1.20;;;;;;;4.88;87.42;96983.55;108971;1265;24161;-78
2023/10/09 10:06:50;;;;;;;2.30;1.40;;;;;;;4.94;87.45;96990.04;109008;1265;23328;-78
2023/10/09 10:09:41;;;;;;;2.70;1.50;;;;;;;4.99;87.62;96984.45;109022;1265;22629;-78
2023/10/09 10:13:21;;;;;;;3.10;1.40;;;;;;;5.05;87.31;96984.41;108989;1268;67592;-78
2023/10/09 10:16:12;;;;;;;4.30;2.70;;;;;;;5.15;87.52;96974.51;109016;1272;22524;-79
2023/10/09 10:19:21;;;;;;;6.10;3.90;;;;;;;5.22;87.60;96972.66;109001;1272;23888;-79
2023/10/09 10:22:37;;;;;;;3.10;1.60;;;;;;;5.33;88.13;96971.29;108947;1269;34457;-79
2023/10/09 10:25:49;;;;;;;2.60;1.50;;;;;;;5.40;88.41;96968.29;109032;1251;22547;-78
2023/10/09 10:28:42;;;;;;;9.30;5.60;;;;;;;5.40;88.09;96961.41;108997;1265;22618;-78
2023/10/09 10:31:46;;;;;;;3.20;2.20;;;;;;;5.41;88.06;96953.17;108969;1264;49514;-78
2023/10/09 10:34:25;;;;;;;3.10;2.10;;;;;;;5.41;87.89;96953.33;109019;1265;22537;-78
2023/10/09 10:37:07;;;;;;;2.20;1.70;;;;;;;5.43;88.14;96957.36;109040;1265;22608;-78
2023/10/09 10:40:13;;;;;;;2.00;1.30;;;;;;;5.48;88.60;96962.50;108998;1268;22754;-78
2023/10/09 10:43:09;;;;;;;2.20;1.10;;;;;;;5.52;88.70;96968.41;108937;1265;63452;-78
2023/10/09 10:45:49;;;;;;;2.60;1.30;;;;;;;5.54;88.72;96968.38;109010;1272;23641;-78
2023/10/09 10:48:37;;;;;;;2.40;1.40;;;;;;;5.57;89.05;96974.44;109001;1272;23885;-78
2023/10/09 10:51:22;;;;;;;2.00;1.30;;;;;;;5.61;89.37;96965.92;107607;1266;1866543;-78
2023/10/09 10:54:45;;;;;;;1.80;1.20;;;;;;;5.58;89.36;96961.67;108975;1270;22641;-78
2023/10/09 11:03:54;;;;;;;2.70;1.40;;;;;;;5.69;89.61;96926.70;109153;1271;22561;-78
2023/10/09 11:06:49;;;;;;;2.30;1.30;;;;;;;5.69;89.69;96918.30;109108;1271;25414;-78
2023/10/09 11:09:35;;;;;;;1.90;1.20;;;;;;;5.69;89.54;96918.13;109144;1271;25946;-78
2023/10/09 11:12:22;;;;;;;2.10;1.30;;;;;;;5.69;89.50;96909.45;109075;1266;44044;-78
2023/10/09 11:15:08;;;;;;;2.10;1.30;;;;;;;5.67;89.62;96907.54;109044;1268;23809;-78
2023/10/09 11:17:58;;;;;;;3.20;1.60;;;;;;;5.68;89.81;96900.75;109085;1259;23686;-78
2023/10/09 11:20:53;;;;;;;3.10;1.70;;;;;;;5.71;89.90;96895.66;108990;1266;22517;-78
2023/10/09 11:23:53;;;;;;;2.40;2.00;;;;;;;5.73;90.11;96890.58;109026;1272;23219;-78
2023/10/09 11:26:40;;;;;;;3.60;1.90;;;;;;;5.73;90.21;96888.47;109053;1272;23878;-78
2023/10/09 11:29:23;;;;;;;4.30;2.50;;;;;;;5.76;90.45;96875.83;108981;1272;22513;-78
2023/10/09 11:32:18;;;;;;;4.10;2.00;;;;;;;5.78;90.49;96861.30;108963;1272;58413;-78
2023/10/09 11:35:27;;;;;;;3.10;1.90;;;;;;;5.82;90.45;96860.55;108549;1276;22552;-78
2023/10/09 11:38:22;;;;;;;3.60;2.20;;;;;;;5.78;90.46;96855.78;108985;1272;22533;-78
2023/10/09 11:41:18;;;;;;;3.30;2.00;;;;;;;5.80;90.68;96852.80;108982;1272;23190;-78
2023/10/09 11:44:18;;;;;;;3.80;2.10;;;;;;;5.84;90.93;96832.97;109122;1265;22538;-78
2023/10/09 11:47:22;;;;;;;3.60;2.00;;;;;;;5.82;90.48;96825.95;109109;1271;22541;-78
2023/10/09 11:53:19;;;;;;;3.50;1.70;;;;;;;5.64;90.24;96820.90;108724;1270;60777;-78
2023/10/09 11:56:09;;;;;;;3.70;1.90;;;;;;;5.55;90.22;96825.40;109187;1268;22568;-78
2023/10/09 11:58:48;;;;;;;3.40;2.50;;;;;;;5.51;90.60;96829.72;109107;1264;23973;-78
2023/10/09 12:01:35;;;;;;;3.90;1.70;;;;;;;5.50;90.69;96831.54;109130;1265;61558;-78
2023/10/09 12:04:09;;;;;;;4.50;2.70;;;;;;;5.51;90.85;96824.35;109138;1271;22639;-78
2023/10/09 12:07:06;;;;;;;2.70;1.80;;;;;;;5.50;90.72;96823.59;109138;1271;22507;-78
2023/10/09 12:09:38;;;;;;;3.00;1.80;;;;;;;5.51;90.97;96822.23;109137;1271;23980;-78
2023/10/09 12:12:26;;;;;;;4.20;2.40;;;;;;;5.55;91.18;96818.23;109035;1267;57457;-78
2023/10/09 12:14:57;;;;;;;;;;;;;;;5.53;90.98;96808.85;109129;1264;22912;-78
2023/10/09 12:17:49;;;;;;;14.20;7.10;;;;;;;5.49;91.02;96801.12;109137;1271;25407;-78
2023/10/09 12:20:35;;;;;;;8.90;5.20;;;;;;;5.49;91.30;96795.86;109182;1266;23146;-78
2023/10/09 12:23:06;;;;;;;2.90;2.00;;;;;;;5.48;91.08;96788.31;107769;1271;1821935;-78
2023/10/09 12:25:56;;;;;;;12.50;6.20;;;;;;;5.46;91.28;96788.44;109075;1268;22522;-78
2023/10/09 12:28:29;;;;;;;4.90;3.00;;;;;;;5.45;91.20;96780.80;109160;1264;22556;-78
2023/10/09 12:31:07;;;;;;;1.90;1.10;;;;;;;5.43;91.26;96778.58;109165;1271;24600;-78
2023/10/09 12:33:59;;;;;;;4.70;2.10;;;;;;;5.42;91.35;96773.14;108981;1265;22551;-78
2023/10/09 12:39:40;;;;;;;4.00;2.90;;;;;;;5.41;91.32;96768.61;109027;1268;22817;-78
2023/10/09 12:42:21;;;;;;;4.30;2.70;;;;;;;5.39;91.29;96771.15;109078;1269;44582;-78
2023/10/09 12:45:08;;;;;;;3.30;2.50;;;;;;;5.38;91.47;96772.05;109140;1266;22589;-78
2023/10/09 12:47:50;;;;;;;3.80;2.30;;;;;;;5.37;91.46;96771.30;109137;1271;24343;-78
2023/10/09 12:50:33;;;;;;;5.60;2.70;;;;;;;5.38;91.39;96773.98;109188;1266;23797;-78
2023/10/09 12:53:17;;;;;;;4.60;2.50;;;;;;;5.38;91.73;96773.98;109014;1272;51126;-78
2023/10/09 12:56:05;;;;;;;4.80;2.70;;;;;;;5.40;91.79;96772.27;109046;1268;22986;-78
2023/10/09 12:58:56;;;;;;;4.70;2.80;;;;;;;5.40;91.48;96764.96;108984;1266;22859;-78
2023/10/09 13:01:45;;;;;;;3.40;2.50;;;;;;;5.40;91.41;96767.27;107720;1272;1750984;-79
2023/10/09 13:04:31;;;;;;;3.90;2.50;;;;;;;5.41;91.36;96767.92;109019;1268;22522;-79
2023/10/09 13:07:09;;;;;;;5.30;2.90;;;;;;;5.42;91.39;96768.98;109044;1272;22514;-78
2023/10/09 13:10:08;;;;;;;3.50;2.40;;;;;;;5.45;91.49;96768.23;109010;1269;25491;-78
2023/10/09 13:12:42;;;;;;;3.60;2.40;;;;;;;5.46;91.52;96766.94;107479;1272;2025443;-78
2023/10/09 13:15:20;;;;;;;3.60;2.70;;;;;;;5.48;91.76;96765.75;108988;1266;22522;-79
2023/10/09 13:18:01;;;;;;;3.00;2.50;;;;;;;5.49;91.65;96760.66;108998;1273;22630;-79
2023/10/09 13:20:42;;;;;;;3.90;2.80;;;;;;;5.49;91.53;96749.35;108998;1265;22999;-78
2023/10/09 13:23:21;;;;;;;5.70;3.00;;;;;;;5.49;91.55;96754.77;108957;1270;66656;-78
2023/10/09 13:26:08;;;;;;;3.90;2.70;;;;;;;5.49;91.61;96758.98;109019;1272;24224;-78
2023/10/09 13:28:51;;;;;;;3.70;2.50;;;;;;;5.49;91.70;96759.66;109010;1265;24075;-78
2023/10/09 13:31:31;;;;;;;;;;;;;;;5.49;91.93;96759.77;108944;1266;61031;-79
2023/10/09 13:34:20;;;;;;;4.50;2.70;;;;;;;5.49;92.01;96761.20;109000;1265;22511;-78
2023/10/09 13:37:11;;;;;;;3.50;2.50;;;;;;;5.48;92.15;96763.23;108970;1270;22712;-78
2023/10/09 13:39:56;;;;;;;5.10;2.90;;;;;;;5.50;92.21;96755.45;108995;1265;22522;-78
2023/10/09 13:42:37;;;;;;;4.10;2.60;;;;;;;5.51;92.17;96748.14;108983;1272;61437;-78
2023/10/09 13:45:36;;;;;;;7.40;2.90;;;;;;;5.51;92.42;96746.46;108988;1265;24246;-78
2023/10/09 13:48:26;;;;;;;5.70;2.70;;;;;;;5.52;92.47;96743.89;108985;1268;22519;-79
2023/10/09 13:51:13;;;;;;;5.80;3.60;;;;;;;5.53;92.64;96743.55;108958;1270;22857;-78
2023/10/09 13:53:51;;;;;;;4.90;2.90;;;;;;;5.53;92.58;96737.59;108991;1265;46849;-78
2023/10/09 13:56:29;;;;;;;5.00;3.50;;;;;;;5.51;92.82;96728.89;108971;1272;25343;-78
2023/10/09 13:59:11;;;;;;;5.60;3.70;;;;;;;5.51;92.70;96733.16;108998;1265;23832;-78
2023/10/09 14:01:59;;;;;;;6.00;3.80;;;;;;;5.50;93.04;96732.83;108929;1272;49088;-78
2023/10/09 14:04:31;;;;;;;6.30;4.00;;;;;;;5.49;93.16;96727.70;108967;1266;22660;-78
2023/10/09 14:12:05;;;;;;;;;;;;;;;;;;;;;
2023/10/09 14:15:11;;;;;;;5.60;3.90;;;;;;;5.43;93.51;96716.94;108128;1277;22570;-79
2023/10/09 14:18:02;;;;;;;6.10;4.10;;;;;;;5.48;93.89;96724.95;108642;1277;23986;-78
2023/10/09 14:26:25;;;;;;;7.20;4.20;;;;;;;5.48;94.05;96725.05;109076;1264;21739;-79
2023/10/09 14:29:06;;;;;;;8.70;4.80;;;;;;;5.49;94.14;96727.38;109141;1271;23830;-78
2023/10/09 14:32:05;;;;;;;5.50;3.90;;;;;;;5.49;94.24;96723.14;108971;1266;55984;-78
2023/10/09 14:34:49;;;;;;;7.50;4.70;;;;;;;5.48;94.46;96725.89;109095;1271;24159;-78
2023/10/09 14:37:33;;;;;;;6.30;4.50;;;;;;;5.47;94.50;96721.15;109116;1266;25423;-78
2023/10/09 14:40:29;;;;;;;7.50;5.10;;;;;;;5.44;94.67;96709.80;109110;1264;22527;-78
2023/10/09 14:45:59;;;;;;;7.40;5.40;;;;;;;5.48;95.00;96698.65;109102;1264;22632;-79
2023/10/09 14:48:37;;;;;;;8.70;4.60;;;;;;;5.48;95.13;96700.90;109095;1252;22625;-78
2023/10/09 14:51:29;;;;;;;7.70;5.10;;;;;;;5.47;95.30;96699.21;109039;1269;24421;-78
2023/10/09 14:54:21;;;;;;;7.20;5.10;;;;;;;5.48;95.68;96695.92;109134;1264;22508;-78
2023/10/09 14:56:58;;;;;;;10.60;5.60;;;;;;;5.51;95.70;96694.09;109118;1271;22513;-78
2023/10/09 14:59:32;;;;;;;9.40;5.20;;;;;;;5.53;95.95;96691.73;109025;1271;22527;-78
2023/10/09 15:02:31;;;;;;;8.70;5.90;;;;;;;5.53;95.89;96691.15;109049;1271;58780;-78
2023/10/09 15:05:19;;;;;;;8.90;5.30;;;;;;;5.55;96.18;96693.17;109152;1271;22677;-78